createdAt,value
2022-09-17T00:01:38.585Z,9.10
2022-09-17T00:04:40.453Z,9.10
2022-09-17T00:07:42.333Z,9.10
2022-09-17T00:10:44.857Z,9.10
2022-09-17T00:13:46.805Z,9.10
2022-09-17T00:16:49.476Z,9.10
2022-09-17T00:19:51.319Z,9.10
2022-09-17T00:22:53.898Z,9.10
2022-09-17T00:25:55.717Z,9.00
2022-09-17T00:28:58.065Z,9.00
2022-09-17T00:31:59.920Z,8.90
2022-09-17T00:35:01.779Z,8.90
2022-09-17T00:38:03.730Z,8.90
2022-09-17T00:41:05.892Z,8.90
2022-09-17T00:44:41.284Z,8.90
2022-09-17T00:47:48.003Z,8.90
2022-09-17T00:50:49.845Z,8.90
2022-09-17T00:53:51.713Z,8.80
2022-09-17T00:56:53.528Z,8.80
2022-09-17T00:59:55.723Z,8.80
2022-09-17T01:02:58.327Z,8.70
2022-09-17T01:06:14.321Z,8.70
2022-09-17T01:09:54.575Z,8.60
2022-09-17T01:13:11.360Z,8.70
2022-09-17T01:16:19.721Z,8.60
2022-09-17T01:20:05.101Z,8.60
2022-09-17T01:23:29.001Z,8.50
2022-09-17T01:27:03.292Z,8.40
2022-09-17T01:30:36.361Z,8.40
2022-09-17T01:33:57.004Z,8.30
2022-09-17T01:37:03.671Z,8.30
2022-09-17T01:40:33.227Z,8.20
2022-09-17T01:43:39.918Z,8.20
2022-09-17T01:46:53.696Z,8.20
2022-09-17T01:49:57.557Z,8.20
2022-09-17T01:52:59.424Z,8.20
2022-09-17T01:56:01.288Z,8.10
2022-09-17T01:59:09.810Z,8.10
2022-09-17T02:02:34.332Z,8.00
2022-09-17T02:05:58.277Z,8.10
2022-09-17T02:09:02.163Z,8.10
2022-09-17T02:12:05.493Z,8.00
2022-09-17T02:15:12.851Z,8.00
2022-09-17T02:18:41.320Z,7.90
2022-09-17T02:21:49.243Z,7.90
2022-09-17T02:25:05.498Z,7.80
2022-09-17T02:28:15.729Z,7.80
2022-09-17T02:31:17.676Z,7.70
2022-09-17T02:34:19.800Z,7.70
2022-09-17T02:37:21.643Z,7.70
2022-09-17T02:40:24.335Z,7.70
2022-09-17T02:43:38.400Z,7.60
2022-09-17T02:47:15.899Z,7.60
2022-09-17T02:50:29.999Z,7.60
2022-09-17T02:53:48.408Z,7.60
2022-09-17T02:56:57.761Z,7.60
2022-09-17T03:00:06.190Z,7.50
2022-09-17T03:03:11.340Z,7.50
2022-09-17T03:06:13.487Z,7.50
2022-09-17T03:09:15.704Z,7.50
2022-09-17T03:12:17.600Z,7.50
2022-09-17T03:15:19.388Z,7.50
2022-09-17T03:18:21.235Z,7.50
2022-09-17T03:21:23.103Z,7.50
2022-09-17T03:24:24.968Z,7.50
2022-09-17T03:27:26.953Z,7.50
2022-09-17T03:30:28.796Z,7.50
2022-09-17T03:33:31.001Z,7.40
2022-09-17T03:36:32.877Z,7.40
2022-09-17T03:39:35.144Z,7.40
2022-09-17T03:42:36.988Z,7.40
2022-09-17T03:45:38.880Z,7.50
2022-09-17T03:48:40.751Z,7.40
2022-09-17T03:51:42.904Z,7.40
2022-09-17T03:54:44.744Z,7.40
2022-09-17T03:57:46.590Z,7.40
2022-09-17T04:00:53.191Z,7.40
2022-09-17T04:03:55.352Z,7.30
2022-09-17T04:06:57.342Z,7.30
2022-09-17T04:09:59.184Z,7.30
2022-09-17T04:13:01.020Z,7.20
2022-09-17T04:16:03.178Z,7.20
2022-09-17T04:19:05.150Z,7.20
2022-09-17T04:22:07.022Z,7.20
2022-09-17T04:25:08.988Z,7.10
2022-09-17T04:28:10.895Z,7.10
2022-09-17T04:31:12.851Z,7.10
2022-09-17T04:34:14.718Z,7.10
2022-09-17T04:37:17.477Z,7.10
2022-09-17T04:40:19.377Z,7.10
2022-09-17T04:43:21.224Z,7.00
2022-09-17T04:46:23.063Z,7.00
2022-09-17T04:49:25.464Z,7.00
2022-09-17T04:52:30.861Z,7.00
2022-09-17T04:55:32.983Z,6.90
2022-09-17T04:58:34.834Z,6.90
2022-09-17T05:01:36.727Z,6.90
2022-09-17T05:04:38.591Z,6.90
2022-09-17T05:07:40.628Z,6.90
2022-09-17T05:10:42.528Z,6.90
2022-09-17T05:13:44.329Z,6.90
2022-09-17T05:16:46.351Z,6.80
2022-09-17T05:19:48.202Z,6.80
2022-09-17T05:22:51.676Z,6.70
2022-09-17T05:25:53.576Z,6.70
2022-09-17T05:28:55.677Z,6.70
2022-09-17T05:31:57.644Z,6.70
2022-09-17T05:35:03.579Z,6.80
2022-09-17T05:38:10.188Z,6.70
2022-09-17T05:41:12.031Z,6.70
2022-09-17T05:44:17.862Z,6.70
2022-09-17T05:47:20.000Z,6.70
2022-09-17T05:50:22.125Z,6.70
2022-09-17T05:53:24.139Z,6.70
2022-09-17T05:56:25.985Z,6.70
2022-09-17T05:59:28.154Z,6.70
2022-09-17T06:02:30.006Z,6.90
2022-09-17T06:05:32.130Z,6.80
2022-09-17T06:08:35.344Z,6.80
2022-09-17T06:11:37.431Z,6.80
2022-09-17T06:14:39.256Z,6.80
2022-09-17T06:17:41.161Z,6.80
2022-09-17T06:20:43.052Z,6.80
2022-09-17T06:23:45.065Z,7.00
2022-09-17T06:26:46.903Z,6.80
2022-09-17T06:29:48.867Z,6.90
2022-09-17T06:32:51.229Z,6.90
2022-09-17T06:36:05.940Z,6.90
2022-09-17T06:39:09.741Z,7.00
2022-09-17T06:42:12.504Z,7.00
2022-09-17T06:45:16.792Z,7.10
2022-09-17T06:48:18.894Z,7.20
2022-09-17T06:51:22.629Z,7.20
2022-09-17T06:54:24.712Z,7.30
2022-09-17T06:57:26.595Z,7.40
2022-09-17T07:00:28.488Z,7.60
2022-09-17T07:03:30.644Z,7.60
2022-09-17T07:06:32.506Z,7.90
2022-09-17T07:09:34.369Z,8.60
2022-09-17T07:12:40.722Z,9.50
2022-09-17T07:15:42.612Z,10.80
2022-09-17T07:18:44.529Z,11.90
2022-09-17T07:21:49.174Z,13.00
2022-09-17T07:24:50.996Z,13.90
2022-09-17T07:27:53.133Z,14.70
2022-09-17T07:30:55.813Z,15.40
2022-09-17T07:33:57.705Z,16.10
2022-09-17T07:36:59.522Z,16.60
2022-09-17T07:40:01.536Z,16.80
2022-09-17T07:43:03.419Z,17.20
2022-09-17T07:46:05.982Z,17.50
2022-09-17T07:49:07.913Z,17.90
2022-09-17T07:52:09.811Z,18.20
2022-09-17T07:55:11.968Z,18.40
2022-09-17T07:58:13.814Z,18.80
2022-09-17T08:01:18.931Z,19.20
2022-09-17T08:04:20.913Z,19.40
2022-09-17T08:07:22.882Z,19.70
2022-09-17T08:10:24.868Z,20.00
2022-09-17T08:13:26.739Z,20.30
2022-09-17T08:16:28.987Z,20.50
2022-09-17T08:19:32.881Z,20.60
2022-09-17T08:22:34.747Z,21.10
2022-09-17T08:25:36.675Z,21.10
2022-09-17T08:28:38.535Z,21.20
2022-09-17T08:31:40.506Z,21.70
2022-09-17T08:34:42.404Z,22.00
2022-09-17T08:37:44.337Z,22.20
2022-09-17T08:40:59.078Z,21.80
2022-09-17T08:44:04.630Z,22.10
2022-09-17T08:47:20.969Z,22.30
2022-09-17T08:50:33.621Z,22.50
2022-09-17T08:54:09.943Z,23.00
2022-09-17T08:57:36.802Z,23.40
2022-09-17T09:01:28.158Z,23.20
2022-09-17T09:05:18.686Z,23.30
2022-09-17T09:08:35.529Z,23.20
2022-09-17T09:11:37.384Z,23.40
2022-09-17T09:14:51.236Z,23.30
2022-09-17T09:17:53.079Z,23.60
2022-09-17T09:21:08.904Z,23.80
2022-09-17T09:24:23.738Z,24.30
2022-09-17T09:27:28.875Z,24.50
2022-09-17T09:30:42.647Z,24.30
2022-09-17T09:33:47.874Z,24.00
2022-09-17T09:36:50.288Z,24.20
2022-09-17T09:39:55.213Z,24.00
2022-09-17T09:43:53.051Z,24.20
2022-09-17T09:47:09.782Z,23.80
2022-09-17T09:50:19.369Z,23.80
2022-09-17T09:53:50.574Z,24.20
2022-09-17T09:58:11.205Z,23.90
2022-09-17T10:01:48.705Z,23.90
2022-09-17T10:05:14.945Z,24.00
2022-09-17T10:08:28.716Z,23.60
2022-09-17T10:11:33.258Z,23.30
2022-09-17T10:14:36.079Z,23.40
2022-09-17T10:17:37.883Z,23.00
2022-09-17T10:20:59.550Z,23.10
2022-09-17T10:24:01.549Z,23.10
2022-09-17T10:27:21.664Z,22.70
2022-09-17T10:30:24.880Z,22.90
2022-09-17T10:33:30.908Z,23.30
2022-09-17T10:36:41.117Z,23.20
2022-09-17T10:39:46.671Z,22.80
2022-09-17T10:43:18.004Z,22.40
2022-09-17T10:46:28.871Z,22.30
2022-09-17T10:49:42.350Z,22.40
2022-09-17T10:52:50.924Z,21.90
2022-09-17T10:56:06.075Z,21.80
2022-09-17T10:59:19.996Z,21.40
2022-09-17T11:02:25.334Z,21.00
2022-09-17T11:05:45.403Z,20.60
2022-09-17T11:09:19.674Z,20.10
2022-09-17T11:12:59.806Z,20.10
2022-09-17T11:16:10.954Z,19.80
2022-09-17T11:19:15.436Z,20.10
2022-09-17T11:22:33.078Z,20.40
2022-09-17T11:25:46.923Z,20.90
2022-09-17T11:29:11.265Z,21.00
2022-09-17T11:32:38.246Z,20.60
2022-09-17T11:35:51.766Z,20.80
2022-09-17T11:38:54.413Z,20.90
2022-09-17T11:41:56.350Z,21.00
2022-09-17T11:45:02.809Z,21.20
2022-09-17T11:48:22.796Z,21.10
2022-09-17T11:51:44.112Z,21.30
2022-09-17T11:55:07.272Z,20.80
2022-09-17T11:58:36.607Z,20.90
2022-09-17T12:01:59.019Z,20.70
2022-09-17T12:05:06.875Z,20.90
2022-09-17T12:08:41.046Z,21.10
2022-09-17T12:11:48.643Z,20.70
2022-09-17T12:14:56.139Z,20.90
2022-09-17T12:18:33.580Z,21.20
2022-09-17T12:21:49.602Z,21.10
2022-09-17T12:24:51.865Z,21.20
2022-09-17T12:27:55.262Z,21.20
2022-09-17T12:31:06.051Z,20.90
2022-09-17T12:34:27.017Z,21.20
2022-09-17T12:37:48.812Z,21.10
2022-09-17T12:41:06.088Z,21.30
2022-09-17T12:44:35.692Z,21.60
2022-09-17T12:48:15.912Z,21.70
2022-09-17T12:51:53.267Z,21.50
2022-09-17T12:55:07.044Z,21.70
2022-09-17T12:58:15.485Z,21.70
2022-09-17T13:01:26.342Z,21.80
2022-09-17T13:04:49.809Z,21.90
2022-09-17T13:08:21.162Z,21.80
2022-09-17T13:11:59.111Z,21.60
2022-09-17T13:15:06.770Z,21.90
2022-09-17T13:18:26.439Z,21.80
2022-09-17T13:22:00.415Z,21.60
2022-09-17T13:25:05.359Z,21.70
2022-09-17T13:28:10.515Z,21.90
2022-09-17T13:31:12.612Z,21.50
2022-09-17T13:34:17.474Z,21.70
2022-09-17T13:37:20.017Z,21.60
2022-09-17T13:40:29.139Z,21.70
2022-09-17T13:43:31.022Z,21.60
2022-09-17T13:46:34.336Z,21.90
2022-09-17T13:49:36.270Z,21.90
2022-09-17T13:52:39.643Z,21.80
2022-09-17T13:55:51.107Z,21.40
2022-09-17T13:58:52.926Z,21.30
2022-09-17T14:02:13.373Z,21.50
2022-09-17T14:05:30.443Z,21.60
2022-09-17T14:08:44.216Z,21.50
2022-09-17T14:11:46.053Z,21.50
2022-09-17T14:14:48.702Z,21.50
2022-09-17T14:17:52.272Z,21.20
2022-09-17T14:20:55.701Z,21.00
2022-09-17T14:23:59.711Z,21.10
2022-09-17T14:27:10.489Z,21.20
2022-09-17T14:30:18.937Z,21.20
2022-09-17T14:33:26.266Z,21.00
2022-09-17T14:36:28.076Z,21.10
2022-09-17T14:39:38.426Z,21.30
2022-09-17T14:42:40.276Z,21.10
2022-09-17T14:45:42.222Z,21.10
2022-09-17T14:48:44.034Z,21.00
2022-09-17T14:51:45.965Z,20.90
2022-09-17T14:54:47.853Z,20.90
2022-09-17T14:57:50.736Z,21.00
2022-09-17T15:00:53.114Z,20.90
2022-09-17T15:04:30.646Z,20.90
2022-09-17T15:07:32.450Z,20.80
2022-09-17T15:10:55.633Z,20.80
2022-09-17T15:13:59.141Z,20.50
2022-09-17T15:17:01.987Z,20.40
2022-09-17T15:20:04.304Z,20.10
2022-09-17T15:23:14.867Z,20.00
2022-09-17T15:26:18.345Z,20.10
2022-09-17T15:29:21.690Z,20.10
2022-09-17T15:32:23.474Z,20.10
2022-09-17T15:35:30.626Z,19.80
2022-09-17T15:38:33.080Z,19.70
2022-09-17T15:41:35.273Z,19.50
2022-09-17T15:44:37.075Z,19.40
2022-09-17T15:47:54.824Z,19.40
2022-09-17T15:51:00.692Z,19.50
2022-09-17T15:54:08.128Z,19.50
2022-09-17T15:57:13.280Z,19.60
2022-09-17T16:00:15.613Z,19.40
2022-09-17T16:03:43.523Z,19.20
2022-09-17T16:07:07.909Z,19.10
2022-09-17T16:10:10.196Z,19.00
2022-09-17T16:13:12.021Z,18.80
2022-09-17T16:16:18.311Z,18.70
2022-09-17T16:19:20.146Z,18.60
2022-09-17T16:22:22.436Z,18.40
2022-09-17T16:25:25.547Z,18.40
2022-09-17T16:28:27.442Z,18.10
2022-09-17T16:31:29.304Z,18.00
2022-09-17T16:34:31.213Z,17.90
2022-09-17T16:37:33.057Z,17.70
2022-09-17T16:40:35.036Z,17.70
2022-09-17T16:43:37.752Z,17.60
2022-09-17T16:46:40.043Z,17.40
2022-09-17T16:49:41.967Z,17.30
2022-09-17T16:52:44.753Z,17.10
2022-09-17T16:55:46.565Z,16.90
2022-09-17T16:58:48.910Z,16.80
2022-09-17T17:01:50.653Z,16.70
2022-09-17T17:04:52.519Z,16.60
2022-09-17T17:07:55.371Z,16.50
2022-09-17T17:10:57.193Z,16.50
2022-09-17T17:14:01.137Z,16.40
2022-09-17T17:17:03.460Z,16.30
2022-09-17T17:20:23.856Z,16.30
2022-09-17T17:23:25.677Z,16.10
2022-09-17T17:26:27.537Z,16.10
2022-09-17T17:29:29.638Z,16.00
2022-09-17T17:32:31.687Z,16.00
2022-09-17T17:35:33.476Z,15.90
2022-09-17T17:38:35.754Z,15.80
2022-09-17T17:41:37.633Z,15.80
2022-09-17T17:44:39.500Z,15.70
2022-09-17T17:47:41.403Z,15.60
2022-09-17T17:50:43.218Z,15.40
2022-09-17T17:53:45.361Z,15.30
2022-09-17T17:56:47.234Z,15.20
2022-09-17T17:59:49.052Z,15.10
2022-09-17T18:02:51.357Z,15.00
2022-09-17T18:05:56.307Z,14.90
2022-09-17T18:08:58.259Z,14.80
2022-09-17T18:12:00.092Z,14.60
2022-09-17T18:15:01.896Z,14.50
2022-09-17T18:18:05.835Z,14.30
2022-09-17T18:21:09.558Z,14.20
2022-09-17T18:24:11.563Z,14.10
2022-09-17T18:27:13.388Z,13.90
2022-09-17T18:30:15.271Z,13.70
2022-09-17T18:33:22.061Z,13.60
2022-09-17T18:36:25.388Z,13.40
2022-09-17T18:42:48.996Z,13.20
2022-09-17T18:45:57.481Z,12.90
2022-09-17T18:48:59.698Z,12.80
2022-09-17T18:52:01.732Z,12.70
2022-09-17T18:55:03.686Z,12.60
2022-09-17T18:58:05.495Z,12.50
2022-09-17T19:01:07.799Z,12.40
2022-09-17T19:04:11.273Z,12.30
2022-09-17T19:07:13.125Z,12.20
2022-09-17T19:10:14.957Z,12.20
2022-09-17T19:13:16.778Z,12.20
2022-09-17T19:16:18.675Z,12.20
2022-09-17T19:19:20.614Z,12.10
2022-09-17T19:22:23.594Z,12.00
2022-09-17T19:25:27.613Z,11.90
2022-09-17T19:28:29.418Z,12.00
2022-09-17T19:31:31.245Z,12.00
2022-09-17T19:34:33.171Z,12.00
2022-09-17T19:37:34.993Z,12.10
2022-09-17T19:40:36.905Z,12.10
2022-09-17T19:43:39.355Z,12.10
2022-09-17T19:46:41.244Z,12.00
2022-09-17T19:49:45.713Z,12.00
2022-09-17T19:52:47.569Z,11.80
2022-09-17T19:55:49.573Z,11.60
2022-09-17T19:58:51.704Z,11.40
2022-09-17T20:01:53.719Z,11.30
2022-09-17T20:04:55.560Z,11.30
2022-09-17T20:07:57.685Z,11.40
2022-09-17T20:11:09.407Z,11.40
2022-09-17T20:14:11.865Z,11.40
2022-09-17T20:17:13.969Z,11.30
2022-09-17T20:20:15.841Z,11.10
2022-09-17T20:23:17.635Z,10.90
2022-09-17T20:26:19.504Z,10.90
2022-09-17T20:29:21.325Z,11.00
2022-09-17T20:32:23.178Z,10.90
2022-09-17T20:35:25.020Z,11.00
2022-09-17T20:39:10.139Z,11.00
2022-09-17T20:41:48.864Z,11.00
2022-09-17T20:44:50.706Z,11.00
2022-09-17T20:47:53.640Z,10.90
2022-09-17T20:51:00.250Z,10.80
2022-09-17T20:54:02.368Z,10.80
2022-09-17T20:57:04.243Z,10.80
2022-09-17T21:00:20.727Z,10.80
2022-09-17T21:03:23.445Z,10.80
2022-09-17T21:06:26.039Z,10.90
2022-09-17T21:09:27.851Z,10.90
2022-09-17T21:12:29.703Z,10.80
2022-09-17T21:15:31.501Z,10.80
2022-09-17T21:18:37.464Z,10.80
2022-09-17T21:21:41.197Z,10.80
2022-09-17T21:24:43.007Z,10.70
2022-09-17T21:27:44.868Z,10.60
2022-09-17T21:30:49.610Z,10.50
2022-09-17T21:33:55.987Z,10.60
2022-09-17T21:36:58.289Z,10.60
2022-09-17T21:40:00.192Z,10.70
2022-09-17T21:43:02.056Z,10.80
2022-09-17T21:46:07.448Z,10.80
2022-09-17T21:49:09.474Z,10.80
2022-09-17T21:52:11.296Z,10.80
2022-09-17T21:55:13.649Z,10.70
2022-09-17T21:58:15.493Z,10.60
2022-09-17T22:01:18.783Z,10.70
2022-09-17T22:04:21.377Z,10.70
2022-09-17T22:07:23.736Z,10.70
2022-09-17T22:10:25.547Z,10.70
2022-09-17T22:13:27.460Z,10.70
2022-09-17T22:16:32.080Z,10.70
2022-09-17T22:19:34.673Z,10.70
2022-09-17T22:22:36.585Z,10.70
2022-09-17T22:25:38.410Z,10.60
2022-09-17T22:28:40.219Z,10.50
2022-09-17T22:31:42.175Z,10.50
2022-09-17T22:34:44.044Z,10.60
2022-09-17T22:37:46.496Z,10.60
2022-09-17T22:40:48.454Z,10.60
2022-09-17T22:43:54.364Z,10.60
2022-09-17T22:46:56.809Z,10.60
2022-09-17T22:49:58.718Z,10.60
2022-09-17T22:53:00.584Z,10.70
2022-09-17T22:56:03.448Z,10.50
2022-09-17T22:59:05.299Z,10.50
2022-09-17T23:02:07.688Z,10.50
2022-09-17T23:05:09.534Z,10.60
2022-09-17T23:08:11.371Z,10.50
2022-09-17T23:11:26.396Z,10.50
2022-09-17T23:14:28.412Z,10.50
2022-09-17T23:17:30.311Z,10.60
2022-09-17T23:20:32.798Z,10.50
2022-09-17T23:23:35.172Z,10.40
2022-09-17T23:26:36.960Z,10.40
2022-09-17T23:29:38.772Z,10.40
2022-09-17T23:32:40.630Z,10.40
2022-09-17T23:35:42.409Z,10.40
2022-09-17T23:38:44.626Z,10.50
2022-09-17T23:41:48.056Z,10.50
2022-09-17T23:44:49.909Z,10.50
2022-09-17T23:47:52.269Z,10.50
2022-09-17T23:50:54.078Z,10.50
2022-09-17T23:53:55.939Z,10.50
2022-09-17T23:56:57.964Z,10.50
2022-09-17T23:59:59.904Z,10.50
